Terminal Aerodrome Forecast
Issued by NWS

Home | Current Version | Previous Version | Text Only | Print | Product List | Glossary On
Versions: 1 2 3 4 5 6 7 8 9 10 11 12 13 14 15 16
845
FTUS43 KILX 262338
TAFCMI
TAF
KCMI 262338Z 2700/2724 25007KT P6SM VCSH OVC020
     FM270900 08004KT 4SM BR BKN015
     FM271600 10006KT 2SM -SHRA BR OVC008
     FM272200 05008KT 3SM -SHRA BR OVC006=

USA.gov is the U.S. government's official web portal to all federal, state and local government web resources and services.